sensor_id;sensor_type;location;lat;lon;timestamp;pressure;altitude;pressure_sealevel;temperature;humidity
75640;BME280;64233;51.486;6.332;2023-06-19T00:00:36;100572.41;;;21.64;100.00
75640;BME280;64233;51.486;6.332;2023-06-19T00:03:02;100574.47;;;21.67;100.00
75640;BME280;64233;51.486;6.332;2023-06-19T00:05:27;100573.06;;;21.61;100.00
75640;BME280;64233;51.486;6.332;2023-06-19T00:07:53;100572.41;;;21.64;100.00
75640;BME280;64233;51.486;6.332;2023-06-19T00:10:18;100565.66;;;21.61;100.00
75640;BME280;64233;51.486;6.332;2023-06-19T00:12:44;100574.81;;;21.65;100.00
75640;BME280;64233;51.486;6.332;2023-06-19T00:15:09;100577.53;;;21.65;100.00
75640;BME280;64233;51.486;6.332;2023-06-19T00:17:35;100585.59;;;21.83;100.00
75640;BME280;64233;51.486;6.332;2023-06-19T00:20:03;100589.00;;;21.80;100.00
75640;BME280;64233;51.486;6.332;2023-06-19T00:22:28;100585.06;;;21.69;100.00
75640;BME280;64233;51.486;6.332;2023-06-19T00:24:54;100593.19;;;21.56;100.00
75640;BME280;64233;51.486;6.332;2023-06-19T00:27:19;100586.47;;;21.45;100.00
75640;BME280;64233;51.486;6.332;2023-06-19T00:29:45;100588.25;;;21.41;100.00
75640;BME280;64233;51.486;6.332;2023-06-19T00:32:11;100591.50;;;21.34;100.00
75640;BME280;64233;51.486;6.332;2023-06-19T00:34:36;100596.78;;;21.30;100.00
75640;BME280;64233;51.486;6.332;2023-06-19T00:37:02;100594.13;;;21.13;100.00
75640;BME280;64233;51.486;6.332;2023-06-19T00:39:28;100595.13;;;21.08;100.00
75640;BME280;64233;51.486;6.332;2023-06-19T00:41:54;100602.72;;;20.94;100.00
75640;BME280;64233;51.486;6.332;2023-06-19T00:44:20;100604.50;;;20.81;100.00
75640;BME280;64233;51.486;6.332;2023-06-19T00:46:46;100604.81;;;20.62;100.00
75640;BME280;64233;51.486;6.332;2023-06-19T00:49:12;100597.13;;;20.55;100.00
75640;BME280;64233;51.486;6.332;2023-06-19T00:51:38;100602.56;;;20.55;100.00
75640;BME280;64233;51.486;6.332;2023-06-19T00:54:04;100598.72;;;20.65;100.00
75640;BME280;64233;51.486;6.332;2023-06-19T00:56:30;100611.41;;;20.61;100.00
75640;BME280;64233;51.486;6.332;2023-06-19T00:58:56;100607.25;;;20.55;100.00
75640;BME280;64233;51.486;6.332;2023-06-19T01:01:21;100613.66;;;20.50;100.00
75640;BME280;64233;51.486;6.332;2023-06-19T01:03:49;100609.81;;;20.42;100.00
75640;BME280;64233;51.486;6.332;2023-06-19T01:06:18;100625.53;;;20.37;100.00
75640;BME280;64233;51.486;6.332;2023-06-19T01:09:03;100628.91;;;20.16;100.00
75640;BME280;64233;51.486;6.332;2023-06-19T01:11:37;100623.28;;;20.12;100.00
75640;BME280;64233;51.486;6.332;2023-06-19T01:14:26;100625.66;;;20.14;100.00
75640;BME280;64233;51.486;6.332;2023-06-19T01:16:53;100620.88;;;20.28;100.00
75640;BME280;64233;51.486;6.332;2023-06-19T01:19:20;100624.72;;;20.27;100.00
75640;BME280;64233;51.486;6.332;2023-06-19T01:21:47;100626.50;;;20.32;100.00
75640;BME280;64233;51.486;6.332;2023-06-19T01:24:12;100628.25;;;20.28;100.00
75640;BME280;64233;51.486;6.332;2023-06-19T01:26:38;100626.50;;;20.23;100.00
75640;BME280;64233;51.486;6.332;2023-06-19T01:29:03;100622.31;;;20.08;100.00
75640;BME280;64233;51.486;6.332;2023-06-19T01:31:59;100629.66;;;19.90;100.00
75640;BME280;64233;51.486;6.332;2023-06-19T01:34:28;100621.28;;;19.78;100.00
75640;BME280;64233;51.486;6.332;2023-06-19T01:36:55;100628.47;;;19.74;100.00
75640;BME280;64233;51.486;6.332;2023-06-19T01:39:23;100623.63;;;19.62;100.00
75640;BME280;64233;51.486;6.332;2023-06-19T01:41:48;100621.81;;;19.49;100.00
75640;BME280;64233;51.486;6.332;2023-06-19T01:44:15;100624.53;;;19.49;100.00
75640;BME280;64233;51.486;6.332;2023-06-19T01:46:40;100626.47;;;19.48;100.00
75640;BME280;64233;51.486;6.332;2023-06-19T01:49:07;100624.88;;;19.56;100.00
75640;BME280;64233;51.486;6.332;2023-06-19T01:51:33;100625.69;;;19.56;100.00
75640;BME280;64233;51.486;6.332;2023-06-19T01:53:59;100627.91;;;19.54;100.00
75640;BME280;64233;51.486;6.332;2023-06-19T01:56:24;100628.06;;;19.49;100.00
75640;BME280;64233;51.486;6.332;2023-06-19T01:58:49;100622.78;;;19.53;100.00
75640;BME280;64233;51.486;6.332;2023-06-19T02:01:15;100636.41;;;19.61;100.00
75640;BME280;64233;51.486;6.332;2023-06-19T02:03:40;100635.94;;;19.59;100.00
75640;BME280;64233;51.486;6.332;2023-06-19T02:06:05;100638.31;;;19.52;100.00
75640;BME280;64233;51.486;6.332;2023-06-19T02:08:30;100634.13;;;19.46;100.00
75640;BME280;64233;51.486;6.332;2023-06-19T02:10:56;100639.53;;;19.37;100.00
75640;BME280;64233;51.486;6.332;2023-06-19T02:13:21;100637.44;;;19.34;100.00
75640;BME280;64233;51.486;6.332;2023-06-19T02:15:46;100645.81;;;19.38;100.00
75640;BME280;64233;51.486;6.332;2023-06-19T02:18:12;100651.44;;;19.50;100.00
75640;BME280;64233;51.486;6.332;2023-06-19T02:20:37;100655.81;;;19.69;100.00
75640;BME280;64233;51.486;6.332;2023-06-19T02:23:02;100658.88;;;19.76;100.00
75640;BME280;64233;51.486;6.332;2023-06-19T02:25:27;100661.63;;;19.76;100.00
75640;BME280;64233;51.486;6.332;2023-06-19T02:27:53;100659.44;;;19.87;100.00
75640;BME280;64233;51.486;6.332;2023-06-19T02:30:18;100661.22;;;19.91;100.00
75640;BME280;64233;51.486;6.332;2023-06-19T02:32:43;100669.91;;;20.02;100.00
75640;BME280;64233;51.486;6.332;2023-06-19T02:35:10;100673.56;;;19.98;100.00
75640;BME280;64233;51.486;6.332;2023-06-19T02:37:35;100682.34;;;19.94;100.00
75640;BME280;64233;51.486;6.332;2023-06-19T02:40:04;100682.19;;;19.91;100.00
75640;BME280;64233;51.486;6.332;2023-06-19T02:42:30;100677.06;;;19.89;100.00
75640;BME280;64233;51.486;6.332;2023-06-19T02:44:55;100685.41;;;19.93;100.00
75640;BME280;64233;51.486;6.332;2023-06-19T02:47:27;100678.22;;;19.97;100.00
75640;BME280;64233;51.486;6.332;2023-06-19T02:49:53;100689.59;;;19.99;100.00
75640;BME280;64233;51.486;6.332;2023-06-19T02:52:18;100695.22;;;20.03;100.00
75640;BME280;64233;51.486;6.332;2023-06-19T02:54:43;100689.59;;;19.99;100.00
75640;BME280;64233;51.486;6.332;2023-06-19T02:57:09;100693.41;;;19.89;100.00
75640;BME280;64233;51.486;6.332;2023-06-19T02:59:34;100700.25;;;19.78;100.00
75640;BME280;64233;51.486;6.332;2023-06-19T03:01:59;100696.19;;;19.67;100.00
75640;BME280;64233;51.486;6.332;2023-06-19T03:04:24;100693.13;;;19.59;100.00
75640;BME280;64233;51.486;6.332;2023-06-19T03:06:50;100710.22;;;19.51;100.00
75640;BME280;64233;51.486;6.332;2023-06-19T03:09:15;100711.59;;;19.40;100.00
75640;BME280;64233;51.486;6.332;2023-06-19T03:11:41;100711.88;;;19.30;100.00
75640;BME280;64233;51.486;6.332;2023-06-19T03:14:07;100707.59;;;19.15;100.00
75640;BME280;64233;51.486;6.332;2023-06-19T03:16:33;100708.03;;;19.08;100.00
75640;BME280;64233;51.486;6.332;2023-06-19T03:18:58;100713.09;;;19.01;100.00
75640;BME280;64233;51.486;6.332;2023-06-19T03:21:24;100719.00;;;18.94;100.00
75640;BME280;64233;51.486;6.332;2023-06-19T03:23:49;100719.50;;;18.82;100.00
75640;BME280;64233;51.486;6.332;2023-06-19T03:26:15;100726.84;;;18.82;100.00
75640;BME280;64233;51.486;6.332;2023-06-19T03:28:40;100731.41;;;18.72;100.00
75640;BME280;64233;51.486;6.332;2023-06-19T03:31:05;100733.94;;;18.69;100.00
75640;BME280;64233;51.486;6.332;2023-06-19T03:33:31;100742.34;;;18.58;100.00
75640;BME280;64233;51.486;6.332;2023-06-19T03:35:56;100743.78;;;18.42;100.00
75640;BME280;64233;51.486;6.332;2023-06-19T03:38:22;100744.06;;;18.40;100.00
75640;BME280;64233;51.486;6.332;2023-06-19T03:40:47;100751.94;;;18.42;100.00
75640;BME280;64233;51.486;6.332;2023-06-19T03:43:12;100755.88;;;18.36;100.00
75640;BME280;64233;51.486;6.332;2023-06-19T03:45:38;100759.69;;;18.35;100.00
75640;BME280;64233;51.486;6.332;2023-06-19T03:48:03;100763.91;;;18.27;100.00
75640;BME280;64233;51.486;6.332;2023-06-19T03:50:29;100770.06;;;18.19;100.00
75640;BME280;64233;51.486;6.332;2023-06-19T03:52:54;100772.56;;;18.15;100.00
75640;BME280;64233;51.486;6.332;2023-06-19T03:55:20;100777.28;;;18.10;100.00
75640;BME280;64233;51.486;6.332;2023-06-19T03:57:45;100780.81;;;18.10;100.00
75640;BME280;64233;51.486;6.332;2023-06-19T04:00:11;100791.28;;;18.17;100.00
75640;BME280;64233;51.486;6.332;2023-06-19T04:02:38;100781.94;;;18.09;100.00
75640;BME280;64233;51.486;6.332;2023-06-19T04:05:04;100790.47;;;18.16;100.00
75640;BME280;64233;51.486;6.332;2023-06-19T04:07:29;100791.91;;;18.28;100.00
75640;BME280;64233;51.486;6.332;2023-06-19T04:09:56;100789.66;;;18.30;100.00
75640;BME280;64233;51.486;6.332;2023-06-19T04:12:22;100789.56;;;18.21;100.00
75640;BME280;64233;51.486;6.332;2023-06-19T04:14:47;100796.09;;;18.34;100.00
75640;BME280;64233;51.486;6.332;2023-06-19T04:17:13;100790.19;;;18.46;100.00
75640;BME280;64233;51.486;6.332;2023-06-19T04:19:39;100798.72;;;18.53;100.00
75640;BME280;64233;51.486;6.332;2023-06-19T04:22:04;100800.94;;;18.37;100.00
75640;BME280;64233;51.486;6.332;2023-06-19T04:24:30;100801.16;;;18.40;100.00
75640;BME280;64233;51.486;6.332;2023-06-19T04:26:55;100811.09;;;18.45;100.00
75640;BME280;64233;51.486;6.332;2023-06-19T04:29:20;100814.44;;;18.42;100.00
75640;BME280;64233;51.486;6.332;2023-06-19T04:31:46;100820.47;;;18.39;100.00
75640;BME280;64233;51.486;6.332;2023-06-19T04:34:17;100821.19;;;18.45;100.00
75640;BME280;64233;51.486;6.332;2023-06-19T04:36:49;100821.06;;;18.50;100.00
75640;BME280;64233;51.486;6.332;2023-06-19T04:39:14;100834.06;;;18.53;100.00
75640;BME280;64233;51.486;6.332;2023-06-19T04:41:42;100837.69;;;18.34;100.00
75640;BME280;64233;51.486;6.332;2023-06-19T04:44:08;100840.81;;;18.41;100.00
75640;BME280;64233;51.486;6.332;2023-06-19T04:46:34;100837.47;;;18.31;100.00
75640;BME280;64233;51.486;6.332;2023-06-19T04:48:59;100846.00;;;18.24;100.00
75640;BME280;64233;51.486;6.332;2023-06-19T04:51:25;100854.25;;;18.33;100.00
75640;BME280;64233;51.486;6.332;2023-06-19T04:53:51;100847.72;;;18.34;100.00
75640;BME280;64233;51.486;6.332;2023-06-19T04:56:17;100851.66;;;18.28;100.00
75640;BME280;64233;51.486;6.332;2023-06-19T04:58:42;100855.19;;;18.28;100.00
75640;BME280;64233;51.486;6.332;2023-06-19T05:01:15;100859.13;;;18.36;100.00
75640;BME280;64233;51.486;6.332;2023-06-19T05:03:41;100856.41;;;18.36;100.00
75640;BME280;64233;51.486;6.332;2023-06-19T05:06:07;100858.22;;;18.40;100.00
75640;BME280;64233;51.486;6.332;2023-06-19T05:08:32;100856.81;;;18.43;100.00
75640;BME280;64233;51.486;6.332;2023-06-19T05:10:57;100866.44;;;18.35;100.00
75640;BME280;64233;51.486;6.332;2023-06-19T05:13:23;100867.47;;;18.39;100.00
75640;BME280;64233;51.486;6.332;2023-06-19T05:15:49;100862.72;;;18.31;100.00
75640;BME280;64233;51.486;6.332;2023-06-19T05:18:15;100872.50;;;18.32;100.00
75640;BME280;64233;51.486;6.332;2023-06-19T05:20:40;100879.44;;;18.38;100.00
75640;BME280;64233;51.486;6.332;2023-06-19T05:23:06;100884.59;;;18.40;100.00
75640;BME280;64233;51.486;6.332;2023-06-19T05:25:31;100881.56;;;18.41;100.00
75640;BME280;64233;51.486;6.332;2023-06-19T05:27:56;100878.94;;;18.50;100.00
75640;BME280;64233;51.486;6.332;2023-06-19T05:30:24;100875.09;;;18.51;100.00
75640;BME280;64233;51.486;6.332;2023-06-19T05:32:50;100874.31;;;18.65;100.00
75640;BME280;64233;51.486;6.332;2023-06-19T05:35:15;100876.41;;;18.68;100.00
75640;BME280;64233;51.486;6.332;2023-06-19T05:37:40;100876.09;;;18.83;100.00
75640;BME280;64233;51.486;6.332;2023-06-19T05:40:09;100870.66;;;18.83;100.00
75640;BME280;64233;51.486;6.332;2023-06-19T05:42:37;100873.31;;;18.88;100.00
75640;BME280;64233;51.486;6.332;2023-06-19T05:45:03;100874.91;;;18.89;100.00
75640;BME280;64233;51.486;6.332;2023-06-19T05:47:29;100876.00;;;19.02;100.00
75640;BME280;64233;51.486;6.332;2023-06-19T05:49:58;100878.50;;;19.13;100.00
75640;BME280;64233;51.486;6.332;2023-06-19T05:52:24;100874.19;;;19.12;100.00
75640;BME280;64233;51.486;6.332;2023-06-19T05:54:50;100869.06;;;19.33;100.00
75640;BME280;64233;51.486;6.332;2023-06-19T05:57:16;100871.19;;;19.36;100.00
75640;BME280;64233;51.486;6.332;2023-06-19T05:59:46;100873.28;;;19.39;100.00
75640;BME280;64233;51.486;6.332;2023-06-19T06:02:11;100878.41;;;19.40;100.00
75640;BME280;64233;51.486;6.332;2023-06-19T06:04:36;100878.63;;;19.44;100.00
75640;BME280;64233;51.486;6.332;2023-06-19T06:07:02;100878.72;;;19.39;100.00
75640;BME280;64233;51.486;6.332;2023-06-19T06:09:27;100879.97;;;19.33;100.00
75640;BME280;64233;51.486;6.332;2023-06-19T06:11:52;100881.75;;;19.37;100.00
75640;BME280;64233;51.486;6.332;2023-06-19T06:14:18;100892.84;;;19.41;100.00
75640;BME280;64233;51.486;6.332;2023-06-19T06:16:43;100895.56;;;19.41;100.00
75640;BME280;64233;51.486;6.332;2023-06-19T06:19:08;100887.94;;;19.52;100.00
75640;BME280;64233;51.486;6.332;2023-06-19T06:21:34;100893.22;;;19.48;100.00
75640;BME280;64233;51.486;6.332;2023-06-19T06:23:59;100894.22;;;19.52;100.00
75640;BME280;64233;51.486;6.332;2023-06-19T06:26:25;100903.41;;;19.79;100.00
75640;BME280;64233;51.486;6.332;2023-06-19T06:28:50;100902.03;;;19.90;100.00
75640;BME280;64233;51.486;6.332;2023-06-19T06:31:15;100895.44;;;19.69;100.00
75640;BME280;64233;51.486;6.332;2023-06-19T06:33:40;100909.56;;;19.71;100.00
75640;BME280;64233;51.486;6.332;2023-06-19T06:36:06;100908.50;;;19.58;100.00
75640;BME280;64233;51.486;6.332;2023-06-19T06:38:31;100917.31;;;19.55;100.00
75640;BME280;64233;51.486;6.332;2023-06-19T06:40:56;100906.53;;;19.50;100.00
75640;BME280;64233;51.486;6.332;2023-06-19T06:43:22;100913.94;;;19.35;100.00
75640;BME280;64233;51.486;6.332;2023-06-19T06:45:47;100915.81;;;19.35;100.00
75640;BME280;64233;51.486;6.332;2023-06-19T06:48:12;100930.25;;;19.35;100.00
75640;BME280;64233;51.486;6.332;2023-06-19T06:50:38;100936.50;;;19.36;100.00
75640;BME280;64233;51.486;6.332;2023-06-19T06:53:03;100942.63;;;19.41;100.00
75640;BME280;64233;51.486;6.332;2023-06-19T06:55:28;100938.81;;;19.42;100.00
75640;BME280;64233;51.486;6.332;2023-06-19T06:57:54;100959.19;;;19.31;100.00
75640;BME280;64233;51.486;6.332;2023-06-19T07:00:19;100956.69;;;19.21;100.00
75640;BME280;64233;51.486;6.332;2023-06-19T07:02:44;100961.84;;;19.22;100.00
75640;BME280;64233;51.486;6.332;2023-06-19T07:05:13;100963.16;;;19.11;100.00
75640;BME280;64233;51.486;6.332;2023-06-19T07:07:38;100959.09;;;19.22;100.00
75640;BME280;64233;51.486;6.332;2023-06-19T07:10:03;100960.22;;;19.21;100.00
75640;BME280;64233;51.486;6.332;2023-06-19T07:12:29;100963.91;;;19.39;100.00
75640;BME280;64233;51.486;6.332;2023-06-19T07:14:54;100967.03;;;19.47;100.00
75640;BME280;64233;51.486;6.332;2023-06-19T07:17:20;100966.06;;;19.65;100.00
75640;BME280;64233;51.486;6.332;2023-06-19T07:19:45;100971.56;;;19.88;100.00
75640;BME280;64233;51.486;6.332;2023-06-19T07:22:11;100979.00;;;19.96;100.00
75640;BME280;64233;51.486;6.332;2023-06-19T07:24:36;100969.41;;;19.62;100.00
75640;BME280;64233;51.486;6.332;2023-06-19T07:27:01;100968.94;;;19.83;100.00
75640;BME280;64233;51.486;6.332;2023-06-19T07:29:27;100965.91;;;19.84;100.00
75640;BME280;64233;51.486;6.332;2023-06-19T07:31:52;100973.50;;;19.73;100.00
75640;BME280;64233;51.486;6.332;2023-06-19T07:34:18;100970.69;;;20.01;100.00
75640;BME280;64233;51.486;6.332;2023-06-19T07:36:43;100967.16;;;20.55;100.00
75640;BME280;64233;51.486;6.332;2023-06-19T07:39:09;100964.84;;;20.71;100.00
75640;BME280;64233;51.486;6.332;2023-06-19T07:41:34;100967.97;;;20.87;100.00
75640;BME280;64233;51.486;6.332;2023-06-19T07:44:00;100959.50;;;21.06;100.00
75640;BME280;64233;51.486;6.332;2023-06-19T07:46:25;100958.81;;;20.91;100.00
75640;BME280;64233;51.486;6.332;2023-06-19T07:48:50;100960.81;;;21.26;100.00
75640;BME280;64233;51.486;6.332;2023-06-19T07:51:16;100953.66;;;21.56;100.00
75640;BME280;64233;51.486;6.332;2023-06-19T07:53:41;100956.22;;;21.61;100.00
75640;BME280;64233;51.486;6.332;2023-06-19T07:56:08;100961.06;;;21.73;100.00
75640;BME280;64233;51.486;6.332;2023-06-19T07:58:34;100957.81;;;21.97;100.00
75640;BME280;64233;51.486;6.332;2023-06-19T08:00:59;100954.91;;;21.94;100.00
75640;BME280;64233;51.486;6.332;2023-06-19T08:03:25;100953.81;;;21.60;100.00
75640;BME280;64233;51.486;6.332;2023-06-19T08:05:50;100954.72;;;21.29;100.00
75640;BME280;64233;51.486;6.332;2023-06-19T08:08:15;100956.50;;;21.42;100.00
75640;BME280;64233;51.486;6.332;2023-06-19T08:10:41;100950.94;;;21.65;100.00
75640;BME280;64233;51.486;6.332;2023-06-19T08:13:07;100950.38;;;22.15;100.00
75640;BME280;64233;51.486;6.332;2023-06-19T08:15:32;100942.41;;;21.66;100.00
75640;BME280;64233;51.486;6.332;2023-06-19T08:17:57;100945.28;;;21.70;100.00
75640;BME280;64233;51.486;6.332;2023-06-19T08:20:22;100945.88;;;22.11;100.00
75640;BME280;64233;51.486;6.332;2023-06-19T08:22:48;100940.25;;;21.98;100.00
75640;BME280;64233;51.486;6.332;2023-06-19T08:25:13;100938.22;;;21.87;100.00
75640;BME280;64233;51.486;6.332;2023-06-19T08:27:38;100940.09;;;22.04;100.00
75640;BME280;64233;51.486;6.332;2023-06-19T08:30:04;100937.69;;;22.11;100.00
75640;BME280;64233;51.486;6.332;2023-06-19T08:32:30;100954.03;;;22.28;100.00
75640;BME280;64233;51.486;6.332;2023-06-19T08:34:55;100953.31;;;21.75;100.00
75640;BME280;64233;51.486;6.332;2023-06-19T08:37:20;100952.44;;;22.27;100.00
75640;BME280;64233;51.486;6.332;2023-06-19T08:39:46;100960.53;;;22.62;100.00
75640;BME280;64233;51.486;6.332;2023-06-19T08:42:11;100965.94;;;22.24;100.00
75640;BME280;64233;51.486;6.332;2023-06-19T08:44:37;100965.81;;;22.11;100.00
75640;BME280;64233;51.486;6.332;2023-06-19T08:47:03;100966.16;;;22.01;100.00
75640;BME280;64233;51.486;6.332;2023-06-19T08:49:35;100971.94;;;21.64;100.00
75640;BME280;64233;51.486;6.332;2023-06-19T08:52:04;100977.25;;;21.87;100.00
75640;BME280;64233;51.486;6.332;2023-06-19T08:54:29;100977.91;;;21.84;100.00
75640;BME280;64233;51.486;6.332;2023-06-19T08:56:55;100969.06;;;21.52;100.00
75640;BME280;64233;51.486;6.332;2023-06-19T08:59:21;100981.75;;;21.74;100.00
75640;BME280;64233;51.486;6.332;2023-06-19T09:01:51;100983.03;;;21.86;100.00
75640;BME280;64233;51.486;6.332;2023-06-19T09:04:24;100989.72;;;22.32;100.00
75640;BME280;64233;51.486;6.332;2023-06-19T09:06:55;100985.75;;;22.77;100.00
75640;BME280;64233;51.486;6.332;2023-06-19T09:09:23;100982.44;;;23.01;100.00
75640;BME280;64233;51.486;6.332;2023-06-19T09:14:39;100980.41;;;23.19;100.00
75640;BME280;64233;51.486;6.332;2023-06-19T09:17:26;100979.38;;;22.55;100.00
75640;BME280;64233;51.486;6.332;2023-06-19T09:19:53;100980.19;;;22.64;100.00
75640;BME280;64233;51.486;6.332;2023-06-19T09:22:21;100983.25;;;22.93;100.00
75640;BME280;64233;51.486;6.332;2023-06-19T09:24:47;100987.97;;;23.22;100.00
75640;BME280;64233;51.486;6.332;2023-06-19T09:27:15;100983.81;;;23.16;100.00
75640;BME280;64233;51.486;6.332;2023-06-19T09:29:44;100988.78;;;23.44;100.00
75640;BME280;64233;51.486;6.332;2023-06-19T09:32:24;100984.34;;;23.30;100.00
75640;BME280;64233;51.486;6.332;2023-06-19T09:34:52;100979.50;;;23.57;100.00
75640;BME280;64233;51.486;6.332;2023-06-19T09:37:24;100990.06;;;23.88;100.00
75640;BME280;64233;51.486;6.332;2023-06-19T09:40:00;100992.41;;;24.11;100.00
75640;BME280;64233;51.486;6.332;2023-06-19T09:42:33;100992.56;;;23.30;100.00
75640;BME280;64233;51.486;6.332;2023-06-19T09:45:03;101002.88;;;23.33;100.00
75640;BME280;64233;51.486;6.332;2023-06-19T09:47:42;101002.31;;;23.19;100.00
75640;BME280;64233;51.486;6.332;2023-06-19T09:50:11;100998.97;;;23.04;100.00
75640;BME280;64233;51.486;6.332;2023-06-19T09:52:38;101013.06;;;23.24;100.00
75640;BME280;64233;51.486;6.332;2023-06-19T09:55:04;101016.38;;;23.38;100.00
75640;BME280;64233;51.486;6.332;2023-06-19T09:57:31;101017.72;;;23.75;100.00
75640;BME280;64233;51.486;6.332;2023-06-19T09:59:58;101021.38;;;23.79;100.00
75640;BME280;64233;51.486;6.332;2023-06-19T10:02:25;101009.69;;;23.69;100.00
75640;BME280;64233;51.486;6.332;2023-06-19T10:04:55;101002.88;;;23.33;100.00
75640;BME280;64233;51.486;6.332;2023-06-19T10:07:22;101009.56;;;23.45;100.00
75640;BME280;64233;51.486;6.332;2023-06-19T10:09:58;101007.09;;;23.52;100.00
75640;BME280;64233;51.486;6.332;2023-06-19T10:12:41;101009.84;;;23.73;100.00
75640;BME280;64233;51.486;6.332;2023-06-19T10:15:20;101007.75;;;23.70;100.00
75640;BME280;64233;51.486;6.332;2023-06-19T10:17:49;101016.66;;;23.67;100.00
75640;BME280;64233;51.486;6.332;2023-06-19T10:20:35;101019.06;;;24.11;100.00
75640;BME280;64233;51.486;6.332;2023-06-19T10:23:08;101012.97;;;24.38;100.00
75640;BME280;64233;51.486;6.332;2023-06-19T10:25:39;101013.03;;;24.17;100.00
75640;BME280;64233;51.486;6.332;2023-06-19T10:28:19;101025.47;;;23.72;100.00
75640;BME280;64233;51.486;6.332;2023-06-19T10:30:52;101026.00;;;24.08;100.00
75640;BME280;64233;51.486;6.332;2023-06-19T10:33:18;101029.50;;;24.30;100.00
75640;BME280;64233;51.486;6.332;2023-06-19T10:35:43;101016.84;;;23.83;100.00
75640;BME280;64233;51.486;6.332;2023-06-19T10:38:08;101016.22;;;24.19;100.00
75640;BME280;64233;51.486;6.332;2023-06-19T10:40:37;101011.44;;;24.62;100.00
75640;BME280;64233;51.486;6.332;2023-06-19T10:43:03;101010.03;;;24.56;100.00
75640;BME280;64233;51.486;6.332;2023-06-19T10:45:29;101007.50;;;24.51;100.00
75640;BME280;64233;51.486;6.332;2023-06-19T10:47:55;101015.38;;;24.98;100.00
75640;BME280;64233;51.486;6.332;2023-06-19T10:50:22;101018.06;;;25.23;100.00
75640;BME280;64233;51.486;6.332;2023-06-19T10:52:48;101017.06;;;25.15;100.00
75640;BME280;64233;51.486;6.332;2023-06-19T10:55:14;101024.28;;;24.83;100.00
75640;BME280;64233;51.486;6.332;2023-06-19T10:57:43;101013.16;;;24.79;100.00
75640;BME280;64233;51.486;6.332;2023-06-19T11:00:09;101006.91;;;24.91;100.00
75640;BME280;64233;51.486;6.332;2023-06-19T11:02:39;101010.91;;;24.81;100.00
75640;BME280;64233;51.486;6.332;2023-06-19T11:05:05;101008.81;;;24.20;100.00
75640;BME280;64233;51.486;6.332;2023-06-19T11:07:31;101007.50;;;24.38;100.00
75640;BME280;64233;51.486;6.332;2023-06-19T11:09:57;100994.75;;;24.67;100.00
75640;BME280;64233;51.486;6.332;2023-06-19T11:12:22;100995.53;;;24.68;100.00
75640;BME280;64233;51.486;6.332;2023-06-19T11:14:50;101002.66;;;24.94;100.00
75640;BME280;64233;51.486;6.332;2023-06-19T11:17:16;101000.38;;;24.96;100.00
75640;BME280;64233;51.486;6.332;2023-06-19T11:19:43;101004.34;;;25.10;100.00
75640;BME280;64233;51.486;6.332;2023-06-19T11:22:09;101005.34;;;25.55;100.00
75640;BME280;64233;51.486;6.332;2023-06-19T11:24:35;101003.56;;;25.75;100.00
75640;BME280;64233;51.486;6.332;2023-06-19T11:27:00;100992.88;;;25.58;100.00
75640;BME280;64233;51.486;6.332;2023-06-19T11:29:29;101004.72;;;25.34;100.00
75640;BME280;64233;51.486;6.332;2023-06-19T11:32:14;101002.53;;;25.39;100.00
75640;BME280;64233;51.486;6.332;2023-06-19T11:34:40;101007.66;;;25.16;100.00
75640;BME280;64233;51.486;6.332;2023-06-19T11:37:13;101002.50;;;25.52;100.00
75640;BME280;64233;51.486;6.332;2023-06-19T11:39:40;101004.91;;;25.29;100.00
75640;BME280;64233;51.486;6.332;2023-06-19T11:42:07;101012.59;;;25.48;100.00
75640;BME280;64233;51.486;6.332;2023-06-19T11:44:32;101006.13;;;25.97;100.00
75640;BME280;64233;51.486;6.332;2023-06-19T11:46:57;101007.50;;;26.03;100.00
75640;BME280;64233;51.486;6.332;2023-06-19T11:49:25;101004.97;;;25.69;100.00
75640;BME280;64233;51.486;6.332;2023-06-19T11:51:51;100998.06;;;25.22;100.00
75640;BME280;64233;51.486;6.332;2023-06-19T11:54:16;101004.69;;;25.46;100.00
75640;BME280;64233;51.486;6.332;2023-06-19T11:56:43;100997.28;;;25.75;98.67
75640;BME280;64233;51.486;6.332;2023-06-19T11:59:09;100985.72;;;25.69;99.80
75640;BME280;64233;51.486;6.332;2023-06-19T12:01:36;101002.19;;;25.04;99.41
75640;BME280;64233;51.486;6.332;2023-06-19T12:04:02;100996.91;;;25.48;100.00
75640;BME280;64233;51.486;6.332;2023-06-19T12:06:28;101000.94;;;25.79;99.88
75640;BME280;64233;51.486;6.332;2023-06-19T12:08:54;100997.88;;;25.68;99.72
75640;BME280;64233;51.486;6.332;2023-06-19T12:11:19;100999.53;;;25.44;99.98
75640;BME280;64233;51.486;6.332;2023-06-19T12:13:45;100989.22;;;25.82;99.95
75640;BME280;64233;51.486;6.332;2023-06-19T12:16:10;100993.97;;;26.10;99.77
75640;BME280;64233;51.486;6.332;2023-06-19T12:18:36;100999.66;;;26.33;89.15
75640;BME280;64233;51.486;6.332;2023-06-19T12:21:01;100995.59;;;26.27;89.40
75640;BME280;64233;51.486;6.332;2023-06-19T12:23:27;100983.16;;;26.49;92.87
75640;BME280;64233;51.486;6.332;2023-06-19T12:25:52;100990.56;;;25.88;95.29
75640;BME280;64233;51.486;6.332;2023-06-19T12:28:17;100989.41;;;25.61;98.37
75640;BME280;64233;51.486;6.332;2023-06-19T12:30:44;100986.22;;;25.59;100.00
75640;BME280;64233;51.486;6.332;2023-06-19T12:33:10;100998.53;;;25.77;100.00
75640;BME280;64233;51.486;6.332;2023-06-19T12:35:39;100996.38;;;25.99;96.75
75640;BME280;64233;51.486;6.332;2023-06-19T12:38:04;101001.94;;;26.15;98.54
75640;BME280;64233;51.486;6.332;2023-06-19T12:40:30;100996.72;;;26.26;98.98